sensor_id;sensor_type;location;lat;lon;timestamp;P1;durP1;ratioP1;P2;durP2;ratioP2
65597;SDS011;52267;51.984;20.956;2023-04-02T00:03:00;7.90;;;4.80;;
65597;SDS011;52267;51.984;20.956;2023-04-02T00:05:44;8.00;;;5.50;;
65597;SDS011;52267;51.984;20.956;2023-04-02T00:08:44;8.80;;;5.10;;
65597;SDS011;52267;51.984;20.956;2023-04-02T00:11:11;8.80;;;4.90;;
65597;SDS011;52267;51.984;20.956;2023-04-02T00:13:42;8.50;;;5.50;;
65597;SDS011;52267;51.984;20.956;2023-04-02T00:18:44;9.30;;;5.60;;
65597;SDS011;52267;51.984;20.956;2023-04-02T00:21:21;10.00;;;5.50;;
65597;SDS011;52267;51.984;20.956;2023-04-02T00:23:49;9.60;;;5.80;;
65597;SDS011;52267;51.984;20.956;2023-04-02T00:26:37;8.80;;;5.80;;
65597;SDS011;52267;51.984;20.956;2023-04-02T00:29:11;9.60;;;6.00;;
65597;SDS011;52267;51.984;20.956;2023-04-02T00:31:44;8.60;;;5.30;;
65597;SDS011;52267;51.984;20.956;2023-04-02T00:34:19;7.90;;;5.20;;
65597;SDS011;52267;51.984;20.956;2023-04-02T00:36:49;8.30;;;5.30;;
65597;SDS011;52267;51.984;20.956;2023-04-02T00:39:23;10.50;;;6.10;;
65597;SDS011;52267;51.984;20.956;2023-04-02T00:41:54;9.00;;;5.10;;
65597;SDS011;52267;51.984;20.956;2023-04-02T00:44:38;10.60;;;6.20;;
65597;SDS011;52267;51.984;20.956;2023-04-02T00:47:35;10.10;;;6.30;;
65597;SDS011;52267;51.984;20.956;2023-04-02T00:52:45;8.50;;;5.60;;
65597;SDS011;52267;51.984;20.956;2023-04-02T00:55:15;9.70;;;5.70;;
65597;SDS011;52267;51.984;20.956;2023-04-02T00:57:48;8.90;;;5.40;;
65597;SDS011;52267;51.984;20.956;2023-04-02T01:00:30;7.70;;;5.30;;
65597;SDS011;52267;51.984;20.956;2023-04-02T01:05:48;8.50;;;5.40;;
65597;SDS011;52267;51.984;20.956;2023-04-02T01:25:30;8.30;;;5.00;;
65597;SDS011;52267;51.984;20.956;2023-04-02T01:30:53;8.80;;;5.50;;
65597;SDS011;52267;51.984;20.956;2023-04-02T01:33:27;8.40;;;5.40;;
65597;SDS011;52267;51.984;20.956;2023-04-02T01:36:04;8.40;;;5.20;;
65597;SDS011;52267;51.984;20.956;2023-04-02T01:38:46;8.30;;;5.30;;
65597;SDS011;52267;51.984;20.956;2023-04-02T01:42:07;9.50;;;4.90;;
65597;SDS011;52267;51.984;20.956;2023-04-02T01:44:28;8.90;;;5.30;;
65597;SDS011;52267;51.984;20.956;2023-04-02T01:47:01;9.50;;;5.20;;
65597;SDS011;52267;51.984;20.956;2023-04-02T01:49:31;7.90;;;5.70;;
65597;SDS011;52267;51.984;20.956;2023-04-02T01:51:58;8.50;;;6.10;;
65597;SDS011;52267;51.984;20.956;2023-04-02T01:54:25;9.20;;;5.30;;
65597;SDS011;52267;51.984;20.956;2023-04-02T01:56:55;11.30;;;6.50;;
65597;SDS011;52267;51.984;20.956;2023-04-02T01:59:23;11.30;;;6.40;;
65597;SDS011;52267;51.984;20.956;2023-04-02T02:02:04;9.50;;;6.30;;
65597;SDS011;52267;51.984;20.956;2023-04-02T02:04:33;9.60;;;5.30;;
65597;SDS011;52267;51.984;20.956;2023-04-02T02:07:01;9.80;;;6.00;;
65597;SDS011;52267;51.984;20.956;2023-04-02T02:09:33;9.20;;;6.50;;
65597;SDS011;52267;51.984;20.956;2023-04-02T02:12:04;10.90;;;7.00;;
65597;SDS011;52267;51.984;20.956;2023-04-02T02:14:32;10.60;;;6.80;;
65597;SDS011;52267;51.984;20.956;2023-04-02T02:17:01;11.20;;;6.60;;
65597;SDS011;52267;51.984;20.956;2023-04-02T02:19:37;11.80;;;7.40;;
65597;SDS011;52267;51.984;20.956;2023-04-02T02:22:26;10.50;;;5.90;;
65597;SDS011;52267;51.984;20.956;2023-04-02T02:24:57;10.70;;;6.40;;
65597;SDS011;52267;51.984;20.956;2023-04-02T02:27:42;12.30;;;7.00;;
65597;SDS011;52267;51.984;20.956;2023-04-02T02:30:23;11.70;;;6.70;;
65597;SDS011;52267;51.984;20.956;2023-04-02T02:33:09;10.00;;;6.20;;
65597;SDS011;52267;51.984;20.956;2023-04-02T02:39:04;9.60;;;6.10;;
65597;SDS011;52267;51.984;20.956;2023-04-02T02:41:44;8.30;;;5.60;;
65597;SDS011;52267;51.984;20.956;2023-04-02T02:44:25;7.10;;;4.40;;
65597;SDS011;52267;51.984;20.956;2023-04-02T02:46:59;8.80;;;5.90;;
65597;SDS011;52267;51.984;20.956;2023-04-02T02:49:34;10.80;;;6.60;;
65597;SDS011;52267;51.984;20.956;2023-04-02T02:52:11;13.00;;;6.10;;
65597;SDS011;52267;51.984;20.956;2023-04-02T02:54:45;10.80;;;6.30;;
65597;SDS011;52267;51.984;20.956;2023-04-02T02:57:22;10.80;;;6.60;;
65597;SDS011;52267;51.984;20.956;2023-04-02T02:59:54;12.30;;;7.60;;
65597;SDS011;52267;51.984;20.956;2023-04-02T03:02:26;11.80;;;6.80;;
65597;SDS011;52267;51.984;20.956;2023-04-02T03:04:54;11.30;;;7.20;;
65597;SDS011;52267;51.984;20.956;2023-04-02T03:07:24;11.90;;;7.10;;
65597;SDS011;52267;51.984;20.956;2023-04-02T03:10:13;10.10;;;7.30;;
65597;SDS011;52267;51.984;20.956;2023-04-02T03:13:17;9.60;;;6.10;;
65597;SDS011;52267;51.984;20.956;2023-04-02T03:22:06;12.80;;;7.70;;
65597;SDS011;52267;51.984;20.956;2023-04-02T03:24:59;11.80;;;7.70;;
65597;SDS011;52267;51.984;20.956;2023-04-02T03:27:31;11.00;;;6.70;;
65597;SDS011;52267;51.984;20.956;2023-04-02T03:30:34;11.50;;;7.50;;
65597;SDS011;52267;51.984;20.956;2023-04-02T03:33:16;11.80;;;7.30;;
65597;SDS011;52267;51.984;20.956;2023-04-02T03:36:00;13.90;;;8.40;;
65597;SDS011;52267;51.984;20.956;2023-04-02T03:38:43;12.50;;;8.30;;
65597;SDS011;52267;51.984;20.956;2023-04-02T03:44:22;11.30;;;7.30;;
65597;SDS011;52267;51.984;20.956;2023-04-02T03:47:35;11.30;;;7.00;;
65597;SDS011;52267;51.984;20.956;2023-04-02T03:50:16;10.70;;;7.50;;
65597;SDS011;52267;51.984;20.956;2023-04-02T03:52:44;11.40;;;7.40;;
65597;SDS011;52267;51.984;20.956;2023-04-02T03:55:18;10.90;;;6.50;;
65597;SDS011;52267;51.984;20.956;2023-04-02T04:00:58;11.00;;;6.70;;
65597;SDS011;52267;51.984;20.956;2023-04-02T04:03:38;9.20;;;5.50;;
65597;SDS011;52267;51.984;20.956;2023-04-02T04:06:29;9.20;;;5.60;;
65597;SDS011;52267;51.984;20.956;2023-04-02T04:09:00;7.50;;;5.70;;
65597;SDS011;52267;51.984;20.956;2023-04-02T04:11:55;8.80;;;4.90;;
65597;SDS011;52267;51.984;20.956;2023-04-02T04:19:58;8.40;;;4.70;;
65597;SDS011;52267;51.984;20.956;2023-04-02T04:22:40;9.30;;;5.30;;
65597;SDS011;52267;51.984;20.956;2023-04-02T04:25:24;8.70;;;5.90;;
65597;SDS011;52267;51.984;20.956;2023-04-02T04:31:46;10.30;;;5.80;;
65597;SDS011;52267;51.984;20.956;2023-04-02T04:34:25;11.20;;;7.70;;
65597;SDS011;52267;51.984;20.956;2023-04-02T04:37:00;14.30;;;7.80;;
65597;SDS011;52267;51.984;20.956;2023-04-02T04:39:58;16.70;;;8.40;;
65597;SDS011;52267;51.984;20.956;2023-04-02T04:42:33;13.30;;;7.80;;
65597;SDS011;52267;51.984;20.956;2023-04-02T04:47:38;13.00;;;8.50;;
65597;SDS011;52267;51.984;20.956;2023-04-02T04:50:14;12.20;;;7.90;;
65597;SDS011;52267;51.984;20.956;2023-04-02T04:52:44;14.70;;;8.60;;
65597;SDS011;52267;51.984;20.956;2023-04-02T04:57:50;11.60;;;7.50;;
65597;SDS011;52267;51.984;20.956;2023-04-02T05:00:27;11.90;;;7.60;;
65597;SDS011;52267;51.984;20.956;2023-04-02T05:03:16;13.80;;;8.10;;
65597;SDS011;52267;51.984;20.956;2023-04-02T05:05:49;13.80;;;7.50;;
65597;SDS011;52267;51.984;20.956;2023-04-02T05:08:26;14.10;;;8.80;;
65597;SDS011;52267;51.984;20.956;2023-04-02T05:11:07;14.90;;;8.60;;
65597;SDS011;52267;51.984;20.956;2023-04-02T05:13:50;13.60;;;7.70;;
65597;SDS011;52267;51.984;20.956;2023-04-02T05:16:50;12.00;;;7.40;;
65597;SDS011;52267;51.984;20.956;2023-04-02T05:19:28;13.30;;;8.80;;
65597;SDS011;52267;51.984;20.956;2023-04-02T05:22:27;14.30;;;8.90;;
65597;SDS011;52267;51.984;20.956;2023-04-02T05:31:04;15.80;;;9.30;;
65597;SDS011;52267;51.984;20.956;2023-04-02T05:33:34;16.30;;;8.50;;
65597;SDS011;52267;51.984;20.956;2023-04-02T05:36:06;13.80;;;7.70;;
65597;SDS011;52267;51.984;20.956;2023-04-02T05:38:37;14.10;;;8.20;;
65597;SDS011;52267;51.984;20.956;2023-04-02T05:43:56;16.80;;;8.60;;
65597;SDS011;52267;51.984;20.956;2023-04-02T05:46:35;16.80;;;9.60;;
65597;SDS011;52267;51.984;20.956;2023-04-02T05:49:17;18.60;;;10.00;;
65597;SDS011;52267;51.984;20.956;2023-04-02T05:51:52;17.90;;;9.60;;
65597;SDS011;52267;51.984;20.956;2023-04-02T05:54:25;16.20;;;9.30;;
65597;SDS011;52267;51.984;20.956;2023-04-02T06:03:07;18.40;;;10.50;;
65597;SDS011;52267;51.984;20.956;2023-04-02T06:05:45;20.60;;;10.80;;
65597;SDS011;52267;51.984;20.956;2023-04-02T06:08:22;21.90;;;10.60;;
65597;SDS011;52267;51.984;20.956;2023-04-02T06:11:10;16.70;;;9.10;;
65597;SDS011;52267;51.984;20.956;2023-04-02T06:13:39;18.90;;;11.20;;
65597;SDS011;52267;51.984;20.956;2023-04-02T06:16:09;20.10;;;11.20;;
65597;SDS011;52267;51.984;20.956;2023-04-02T06:18:39;15.90;;;9.40;;
65597;SDS011;52267;51.984;20.956;2023-04-02T06:21:08;15.80;;;8.70;;
65597;SDS011;52267;51.984;20.956;2023-04-02T06:24:00;17.90;;;9.60;;
65597;SDS011;52267;51.984;20.956;2023-04-02T06:26:40;16.20;;;8.60;;
65597;SDS011;52267;51.984;20.956;2023-04-02T06:32:06;14.70;;;9.30;;
65597;SDS011;52267;51.984;20.956;2023-04-02T06:34:37;18.10;;;9.50;;
65597;SDS011;52267;51.984;20.956;2023-04-02T06:37:34;17.30;;;10.30;;
65597;SDS011;52267;51.984;20.956;2023-04-02T06:40:04;17.40;;;9.50;;
65597;SDS011;52267;51.984;20.956;2023-04-02T06:42:42;17.50;;;10.10;;
65597;SDS011;52267;51.984;20.956;2023-04-02T06:45:21;14.30;;;9.40;;
65597;SDS011;52267;51.984;20.956;2023-04-02T06:47:51;19.60;;;11.00;;
65597;SDS011;52267;51.984;20.956;2023-04-02T06:50:25;22.60;;;11.60;;
65597;SDS011;52267;51.984;20.956;2023-04-02T06:52:58;26.60;;;14.20;;
65597;SDS011;52267;51.984;20.956;2023-04-02T06:55:45;22.20;;;12.90;;
65597;SDS011;52267;51.984;20.956;2023-04-02T06:58:27;30.90;;;15.60;;
65597;SDS011;52267;51.984;20.956;2023-04-02T07:00:55;27.20;;;13.90;;
65597;SDS011;52267;51.984;20.956;2023-04-02T07:03:28;29.20;;;14.90;;
65597;SDS011;52267;51.984;20.956;2023-04-02T07:05:58;27.50;;;14.60;;
65597;SDS011;52267;51.984;20.956;2023-04-02T07:08:27;25.80;;;13.70;;
65597;SDS011;52267;51.984;20.956;2023-04-02T07:10:54;25.50;;;14.80;;
65597;SDS011;52267;51.984;20.956;2023-04-02T07:13:23;28.00;;;14.10;;
65597;SDS011;52267;51.984;20.956;2023-04-02T07:15:53;25.10;;;12.70;;
65597;SDS011;52267;51.984;20.956;2023-04-02T07:18:25;23.70;;;12.30;;
65597;SDS011;52267;51.984;20.956;2023-04-02T07:20:54;26.00;;;12.40;;
65597;SDS011;52267;51.984;20.956;2023-04-02T07:23:22;26.80;;;13.10;;
65597;SDS011;52267;51.984;20.956;2023-04-02T07:25:53;21.20;;;11.60;;
65597;SDS011;52267;51.984;20.956;2023-04-02T07:28:22;19.10;;;11.70;;
65597;SDS011;52267;51.984;20.956;2023-04-02T07:30:51;21.30;;;11.30;;
65597;SDS011;52267;51.984;20.956;2023-04-02T07:33:20;18.80;;;10.10;;
65597;SDS011;52267;51.984;20.956;2023-04-02T07:35:49;18.20;;;9.70;;
65597;SDS011;52267;51.984;20.956;2023-04-02T07:38:17;15.40;;;8.50;;
65597;SDS011;52267;51.984;20.956;2023-04-02T07:40:44;11.60;;;7.60;;
65597;SDS011;52267;51.984;20.956;2023-04-02T07:43:12;11.70;;;6.40;;
65597;SDS011;52267;51.984;20.956;2023-04-02T07:45:39;11.70;;;6.00;;
65597;SDS011;52267;51.984;20.956;2023-04-02T07:48:11;9.20;;;6.00;;
65597;SDS011;52267;51.984;20.956;2023-04-02T07:50:39;8.80;;;5.10;;
65597;SDS011;52267;51.984;20.956;2023-04-02T07:53:06;8.60;;;5.10;;
65597;SDS011;52267;51.984;20.956;2023-04-02T07:55:35;7.90;;;4.80;;
65597;SDS011;52267;51.984;20.956;2023-04-02T07:58:02;8.00;;;4.90;;
65597;SDS011;52267;51.984;20.956;2023-04-02T08:00:29;8.90;;;5.70;;
65597;SDS011;52267;51.984;20.956;2023-04-02T08:02:57;9.20;;;5.60;;
65597;SDS011;52267;51.984;20.956;2023-04-02T08:05:24;8.00;;;4.60;;
65597;SDS011;52267;51.984;20.956;2023-04-02T08:07:53;9.10;;;5.70;;
65597;SDS011;52267;51.984;20.956;2023-04-02T08:10:21;10.30;;;5.90;;
65597;SDS011;52267;51.984;20.956;2023-04-02T08:12:49;10.20;;;6.00;;
65597;SDS011;52267;51.984;20.956;2023-04-02T08:15:17;9.50;;;6.20;;
65597;SDS011;52267;51.984;20.956;2023-04-02T08:17:44;10.20;;;5.70;;
65597;SDS011;52267;51.984;20.956;2023-04-02T08:20:17;9.90;;;5.90;;
65597;SDS011;52267;51.984;20.956;2023-04-02T08:22:46;10.20;;;5.90;;
65597;SDS011;52267;51.984;20.956;2023-04-02T08:25:14;9.80;;;5.70;;
65597;SDS011;52267;51.984;20.956;2023-04-02T08:27:42;9.60;;;6.00;;
65597;SDS011;52267;51.984;20.956;2023-04-02T08:30:11;8.50;;;4.90;;
65597;SDS011;52267;51.984;20.956;2023-04-02T08:32:39;8.30;;;4.90;;
65597;SDS011;52267;51.984;20.956;2023-04-02T08:35:15;10.70;;;5.60;;
65597;SDS011;52267;51.984;20.956;2023-04-02T08:37:42;9.80;;;5.30;;
65597;SDS011;52267;51.984;20.956;2023-04-02T08:43:24;9.30;;;5.50;;
65597;SDS011;52267;51.984;20.956;2023-04-02T08:48:56;11.90;;;5.50;;
65597;SDS011;52267;51.984;20.956;2023-04-02T08:51:33;8.20;;;5.40;;
65597;SDS011;52267;51.984;20.956;2023-04-02T08:54:24;10.50;;;5.80;;
65597;SDS011;52267;51.984;20.956;2023-04-02T08:57:00;9.70;;;5.60;;
65597;SDS011;52267;51.984;20.956;2023-04-02T08:59:36;11.90;;;5.70;;
65597;SDS011;52267;51.984;20.956;2023-04-02T09:04:47;10.00;;;6.20;;
65597;SDS011;52267;51.984;20.956;2023-04-02T09:07:16;12.10;;;6.30;;
65597;SDS011;52267;51.984;20.956;2023-04-02T09:09:46;11.30;;;7.00;;
65597;SDS011;52267;51.984;20.956;2023-04-02T09:14:54;11.70;;;5.90;;
65597;SDS011;52267;51.984;20.956;2023-04-02T09:17:32;8.30;;;4.40;;
65597;SDS011;52267;51.984;20.956;2023-04-02T09:20:19;12.60;;;7.10;;
65597;SDS011;52267;51.984;20.956;2023-04-02T09:22:54;11.30;;;6.40;;
65597;SDS011;52267;51.984;20.956;2023-04-02T09:25:29;11.60;;;7.50;;
65597;SDS011;52267;51.984;20.956;2023-04-02T09:28:03;12.10;;;6.90;;
65597;SDS011;52267;51.984;20.956;2023-04-02T09:35:31;9.50;;;5.40;;
65597;SDS011;52267;51.984;20.956;2023-04-02T09:38:21;9.90;;;5.70;;
65597;SDS011;52267;51.984;20.956;2023-04-02T09:41:05;8.10;;;5.30;;
65597;SDS011;52267;51.984;20.956;2023-04-02T09:43:37;9.90;;;5.80;;
65597;SDS011;52267;51.984;20.956;2023-04-02T09:46:24;11.50;;;7.10;;
65597;SDS011;52267;51.984;20.956;2023-04-02T09:48:54;10.00;;;7.00;;
65597;SDS011;52267;51.984;20.956;2023-04-02T09:51:31;14.40;;;7.80;;
65597;SDS011;52267;51.984;20.956;2023-04-02T09:56:31;10.20;;;7.00;;
65597;SDS011;52267;51.984;20.956;2023-04-02T10:01:39;13.30;;;7.90;;
65597;SDS011;52267;51.984;20.956;2023-04-02T10:04:34;13.00;;;7.70;;
65597;SDS011;52267;51.984;20.956;2023-04-02T10:07:02;14.10;;;8.60;;
65597;SDS011;52267;51.984;20.956;2023-04-02T10:09:35;15.20;;;9.60;;
65597;SDS011;52267;51.984;20.956;2023-04-02T10:12:05;15.40;;;8.90;;
65597;SDS011;52267;51.984;20.956;2023-04-02T10:14:42;16.80;;;8.60;;
65597;SDS011;52267;51.984;20.956;2023-04-02T10:17:22;15.50;;;9.20;;
65597;SDS011;52267;51.984;20.956;2023-04-02T10:19:55;10.40;;;7.30;;
65597;SDS011;52267;51.984;20.956;2023-04-02T10:22:45;10.90;;;6.00;;
65597;SDS011;52267;51.984;20.956;2023-04-02T10:25:17;7.70;;;5.50;;
65597;SDS011;52267;51.984;20.956;2023-04-02T10:27:59;8.60;;;5.30;;
65597;SDS011;52267;51.984;20.956;2023-04-02T10:31:25;7.90;;;5.00;;
65597;SDS011;52267;51.984;20.956;2023-04-02T10:33:58;7.20;;;4.60;;
65597;SDS011;52267;51.984;20.956;2023-04-02T10:36:53;8.00;;;5.30;;
65597;SDS011;52267;51.984;20.956;2023-04-02T10:53:39;10.80;;;6.40;;
65597;SDS011;52267;51.984;20.956;2023-04-02T10:56:11;10.40;;;5.80;;
65597;SDS011;52267;51.984;20.956;2023-04-02T10:58:52;8.50;;;5.40;;
65597;SDS011;52267;51.984;20.956;2023-04-02T11:01:25;7.00;;;4.30;;
65597;SDS011;52267;51.984;20.956;2023-04-02T11:04:04;6.50;;;4.30;;
65597;SDS011;52267;51.984;20.956;2023-04-02T11:06:48;7.20;;;4.20;;
65597;SDS011;52267;51.984;20.956;2023-04-02T11:09:21;8.40;;;5.10;;
65597;SDS011;52267;51.984;20.956;2023-04-02T11:11:53;9.90;;;6.50;;
65597;SDS011;52267;51.984;20.956;2023-04-02T11:14:24;8.30;;;5.40;;
65597;SDS011;52267;51.984;20.956;2023-04-02T11:16:54;9.50;;;5.40;;
65597;SDS011;52267;51.984;20.956;2023-04-02T11:22:03;8.60;;;5.10;;
65597;SDS011;52267;51.984;20.956;2023-04-02T11:24:50;8.80;;;5.40;;
65597;SDS011;52267;51.984;20.956;2023-04-02T11:27:29;7.80;;;5.20;;
65597;SDS011;52267;51.984;20.956;2023-04-02T11:30:04;7.70;;;4.90;;
65597;SDS011;52267;51.984;20.956;2023-04-02T11:32:39;7.80;;;4.80;;
65597;SDS011;52267;51.984;20.956;2023-04-02T11:40:58;7.00;;;5.00;;
65597;SDS011;52267;51.984;20.956;2023-04-02T11:46:04;7.00;;;4.60;;
65597;SDS011;52267;51.984;20.956;2023-04-02T11:48:52;7.90;;;4.70;;
65597;SDS011;52267;51.984;20.956;2023-04-02T11:53:52;7.40;;;5.20;;
65597;SDS011;52267;51.984;20.956;2023-04-02T11:56:37;6.70;;;3.80;;
65597;SDS011;52267;51.984;20.956;2023-04-02T12:07:54;8.60;;;5.50;;
65597;SDS011;52267;51.984;20.956;2023-04-02T12:10:33;9.40;;;5.30;;
65597;SDS011;52267;51.984;20.956;2023-04-02T12:16:08;9.30;;;5.00;;
65597;SDS011;52267;51.984;20.956;2023-04-02T12:18:47;9.30;;;5.50;;
65597;SDS011;52267;51.984;20.956;2023-04-02T12:21:25;8.10;;;5.00;;
65597;SDS011;52267;51.984;20.956;2023-04-02T12:23:57;8.10;;;5.10;;
65597;SDS011;52267;51.984;20.956;2023-04-02T12:26:30;9.00;;;5.90;;
65597;SDS011;52267;51.984;20.956;2023-04-02T12:29:25;9.90;;;6.10;;
65597;SDS011;52267;51.984;20.956;2023-04-02T12:31:55;10.60;;;6.70;;
65597;SDS011;52267;51.984;20.956;2023-04-02T12:34:26;10.20;;;6.80;;
65597;SDS011;52267;51.984;20.956;2023-04-02T12:39:32;11.80;;;6.40;;
65597;SDS011;52267;51.984;20.956;2023-04-02T12:42:00;11.10;;;7.00;;
65597;SDS011;52267;51.984;20.956;2023-04-02T12:44:29;12.60;;;7.40;;
65597;SDS011;52267;51.984;20.956;2023-04-02T12:46:57;12.50;;;6.50;;
65597;SDS011;52267;51.984;20.956;2023-04-02T12:49:40;12.90;;;7.80;;
65597;SDS011;52267;51.984;20.956;2023-04-02T12:52:11;11.70;;;7.10;;
65597;SDS011;52267;51.984;20.956;2023-04-02T12:54:50;13.80;;;7.70;;
65597;SDS011;52267;51.984;20.956;2023-04-02T12:57:31;13.70;;;8.00;;
65597;SDS011;52267;51.984;20.956;2023-04-02T13:00:49;12.60;;;7.70;;
65597;SDS011;52267;51.984;20.956;2023-04-02T13:03:00;11.10;;;5.70;;
65597;SDS011;52267;51.984;20.956;2023-04-02T13:05:41;9.30;;;6.10;;
65597;SDS011;52267;51.984;20.956;2023-04-02T13:11:16;8.90;;;5.90;;
65597;SDS011;52267;51.984;20.956;2023-04-02T13:13:45;8.20;;;4.90;;
65597;SDS011;52267;51.984;20.956;2023-04-02T13:16:25;9.80;;;5.90;;
65597;SDS011;52267;51.984;20.956;2023-04-02T13:19:10;8.60;;;5.60;;
65597;SDS011;52267;51.984;20.956;2023-04-02T13:21:45;9.40;;;5.20;;
65597;SDS011;52267;51.984;20.956;2023-04-02T13:24:16;6.90;;;3.80;;
65597;SDS011;52267;51.984;20.956;2023-04-02T13:26:45;10.60;;;5.80;;
65597;SDS011;52267;51.984;20.956;2023-04-02T13:29:28;10.20;;;6.00;;
65597;SDS011;52267;51.984;20.956;2023-04-02T13:34:27;9.30;;;5.70;;
65597;SDS011;52267;51.984;20.956;2023-04-02T13:36:54;8.30;;;5.40;;
65597;SDS011;52267;51.984;20.956;2023-04-02T13:39:23;7.70;;;5.40;;
65597;SDS011;52267;51.984;20.956;2023-04-02T13:44:24;8.60;;;5.10;;
65597;SDS011;52267;51.984;20.956;2023-04-02T13:46:54;8.90;;;5.30;;
65597;SDS011;52267;51.984;20.956;2023-04-02T13:49:24;8.20;;;5.10;;
65597;SDS011;52267;51.984;20.956;2023-04-02T13:51:58;10.10;;;5.90;;
65597;SDS011;52267;51.984;20.956;2023-04-02T13:54:42;8.90;;;5.80;;
65597;SDS011;52267;51.984;20.956;2023-04-02T13:57:16;10.00;;;5.20;;
65597;SDS011;52267;51.984;20.956;2023-04-02T13:59:46;8.50;;;5.00;;
65597;SDS011;52267;51.984;20.956;2023-04-02T14:02:24;8.30;;;5.60;;
65597;SDS011;52267;51.984;20.956;2023-04-02T14:07:56;8.90;;;5.20;;
65597;SDS011;52267;51.984;20.956;2023-04-02T14:13:58;9.60;;;4.50;;
65597;SDS011;52267;51.984;20.956;2023-04-02T14:19:45;9.20;;;5.60;;
65597;SDS011;52267;51.984;20.956;2023-04-02T14:22:50;7.20;;;4.70;;
65597;SDS011;52267;51.984;20.956;2023-04-02T14:28:35;7.80;;;4.80;;
65597;SDS011;52267;51.984;20.956;2023-04-02T14:33:56;6.80;;;4.30;;
65597;SDS011;52267;51.984;20.956;2023-04-02T14:36:45;7.20;;;4.60;;
65597;SDS011;52267;51.984;20.956;2023-04-02T14:42:39;8.40;;;5.00;;
65597;SDS011;52267;51.984;20.956;2023-04-02T14:56:46;7.60;;;4.40;;
65597;SDS011;52267;51.984;20.956;2023-04-02T14:59:31;7.70;;;4.20;;
65597;SDS011;52267;51.984;20.956;2023-04-02T15:02:10;8.10;;;4.60;;
65597;SDS011;52267;51.984;20.956;2023-04-02T15:05:51;7.40;;;4.00;;
65597;SDS011;52267;51.984;20.956;2023-04-02T15:08:17;7.00;;;4.00;;
65597;SDS011;52267;51.984;20.956;2023-04-02T15:16:34;7.10;;;4.50;;
65597;SDS011;52267;51.984;20.956;2023-04-02T15:19:14;7.10;;;4.20;;
65597;SDS011;52267;51.984;20.956;2023-04-02T15:22:04;7.90;;;4.90;;
65597;SDS011;52267;51.984;20.956;2023-04-02T15:27:49;7.40;;;4.90;;
65597;SDS011;52267;51.984;20.956;2023-04-02T15:30:28;7.20;;;4.50;;
65597;SDS011;52267;51.984;20.956;2023-04-02T15:36:03;8.60;;;4.90;;
65597;SDS011;52267;51.984;20.956;2023-04-02T15:38:49;6.70;;;4.20;;
65597;SDS011;52267;51.984;20.956;2023-04-02T15:41:25;8.20;;;4.60;;
65597;SDS011;52267;51.984;20.956;2023-04-02T15:44:11;9.20;;;5.60;;
65597;SDS011;52267;51.984;20.956;2023-04-02T15:56:33;6.90;;;4.20;;
65597;SDS011;52267;51.984;20.956;2023-04-02T15:59:40;5.10;;;3.20;;
65597;SDS011;52267;51.984;20.956;2023-04-02T16:11:11;4.40;;;3.20;;
65597;SDS011;52267;51.984;20.956;2023-04-02T16:13:42;5.80;;;3.70;;
65597;SDS011;52267;51.984;20.956;2023-04-02T16:16:16;5.10;;;3.00;;
65597;SDS011;52267;51.984;20.956;2023-04-02T16:19:17;6.10;;;4.00;;
65597;SDS011;52267;51.984;20.956;2023-04-02T16:25:15;5.90;;;3.80;;
65597;SDS011;52267;51.984;20.956;2023-04-02T16:31:01;7.40;;;4.40;;
65597;SDS011;52267;51.984;20.956;2023-04-02T16:39:49;6.70;;;3.80;;
65597;SDS011;52267;51.984;20.956;2023-04-02T16:42:47;7.00;;;3.90;;
65597;SDS011;52267;51.984;20.956;2023-04-02T16:48:40;7.10;;;4.50;;
65597;SDS011;52267;51.984;20.956;2023-04-02T16:51:31;8.90;;;4.80;;
65597;SDS011;52267;51.984;20.956;2023-04-02T16:57:45;6.60;;;4.60;;
65597;SDS011;52267;51.984;20.956;2023-04-02T17:00:37;8.00;;;4.70;;
65597;SDS011;52267;51.984;20.956;2023-04-02T17:06:43;8.00;;;5.20;;
65597;SDS011;52267;51.984;20.956;2023-04-02T17:09:37;8.10;;;5.40;;
65597;SDS011;52267;51.984;20.956;2023-04-02T17:12:33;8.00;;;5.50;;
65597;SDS011;52267;51.984;20.956;2023-04-02T17:15:38;10.90;;;6.40;;
65597;SDS011;52267;51.984;20.956;2023-04-02T17:18:17;9.40;;;5.70;;
65597;SDS011;52267;51.984;20.956;2023-04-02T17:20:51;9.40;;;5.80;;
65597;SDS011;52267;51.984;20.956;2023-04-02T17:23:29;11.20;;;6.10;;
65597;SDS011;52267;51.984;20.956;2023-04-02T17:26:05;11.60;;;6.90;;
65597;SDS011;52267;51.984;20.956;2023-04-02T17:28:35;8.70;;;5.60;;
65597;SDS011;52267;51.984;20.956;2023-04-02T17:31:31;11.80;;;6.90;;
65597;SDS011;52267;51.984;20.956;2023-04-02T17:34:15;10.70;;;6.60;;
65597;SDS011;52267;51.984;20.956;2023-04-02T17:37:23;13.10;;;8.20;;
65597;SDS011;52267;51.984;20.956;2023-04-02T17:40:05;10.00;;;6.10;;
65597;SDS011;52267;51.984;20.956;2023-04-02T17:49:56;10.20;;;6.10;;
65597;SDS011;52267;51.984;20.956;2023-04-02T17:58:56;10.80;;;6.40;;
65597;SDS011;52267;51.984;20.956;2023-04-02T18:01:45;9.50;;;5.30;;
65597;SDS011;52267;51.984;20.956;2023-04-02T18:04:44;9.70;;;5.50;;
65597;SDS011;52267;51.984;20.956;2023-04-02T18:10:34;9.00;;;5.20;;
65597;SDS011;52267;51.984;20.956;2023-04-02T18:13:34;8.20;;;4.90;;
65597;SDS011;52267;51.984;20.956;2023-04-02T18:16:22;8.60;;;5.80;;
65597;SDS011;52267;51.984;20.956;2023-04-02T18:33:01;8.70;;;5.40;;
65597;SDS011;52267;51.984;20.956;2023-04-02T18:39:24;13.00;;;6.90;;
65597;SDS011;52267;51.984;20.956;2023-04-02T18:50:43;9.20;;;6.40;;
65597;SDS011;52267;51.984;20.956;2023-04-02T18:53:16;10.90;;;6.20;;
65597;SDS011;52267;51.984;20.956;2023-04-02T18:56:12;11.90;;;6.00;;
65597;SDS011;52267;51.984;20.956;2023-04-02T18:58:50;9.60;;;4.90;;
65597;SDS011;52267;51.984;20.956;2023-04-02T19:01:34;9.30;;;5.20;;
65597;SDS011;52267;51.984;20.956;2023-04-02T19:04:13;7.10;;;4.20;;
65597;SDS011;52267;51.984;20.956;2023-04-02T19:07:16;7.00;;;4.40;;
65597;SDS011;52267;51.984;20.956;2023-04-02T19:09:44;10.80;;;5.30;;
65597;SDS011;52267;51.984;20.956;2023-04-02T19:12:20;10.20;;;5.30;;
65597;SDS011;52267;51.984;20.956;2023-04-02T19:14:50;8.50;;;4.80;;
65597;SDS011;52267;51.984;20.956;2023-04-02T19:20:23;8.90;;;4.20;;
65597;SDS011;52267;51.984;20.956;2023-04-02T19:26:17;12.00;;;6.40;;
65597;SDS011;52267;51.984;20.956;2023-04-02T19:31:57;8.20;;;4.90;;
65597;SDS011;52267;51.984;20.956;2023-04-02T19:37:38;10.20;;;5.50;;
65597;SDS011;52267;51.984;20.956;2023-04-02T19:43:09;6.80;;;4.40;;
65597;SDS011;52267;51.984;20.956;2023-04-02T19:45:44;7.20;;;4.20;;
65597;SDS011;52267;51.984;20.956;2023-04-02T19:48:18;9.50;;;5.30;;
65597;SDS011;52267;51.984;20.956;2023-04-02T19:50:48;8.20;;;4.60;;
65597;SDS011;52267;51.984;20.956;2023-04-02T19:53:18;9.60;;;5.20;;
65597;SDS011;52267;51.984;20.956;2023-04-02T19:55:47;9.60;;;5.70;;
65597;SDS011;52267;51.984;20.956;2023-04-02T19:58:35;7.40;;;4.30;;
65597;SDS011;52267;51.984;20.956;2023-04-02T20:01:03;8.70;;;4.80;;
65597;SDS011;52267;51.984;20.956;2023-04-02T20:03:32;9.40;;;5.10;;
65597;SDS011;52267;51.984;20.956;2023-04-02T20:06:02;10.20;;;6.40;;
65597;SDS011;52267;51.984;20.956;2023-04-02T20:08:30;9.00;;;4.90;;
65597;SDS011;52267;51.984;20.956;2023-04-02T20:11:01;9.40;;;4.60;;
65597;SDS011;52267;51.984;20.956;2023-04-02T20:13:30;9.00;;;4.20;;
65597;SDS011;52267;51.984;20.956;2023-04-02T20:16:01;8.70;;;4.90;;
65597;SDS011;52267;51.984;20.956;2023-04-02T20:18:30;8.90;;;4.70;;